Dekalb, IL

9:53 AM CST on December 26, 2014 (GMT -0600)
Rochelle | Change Station
CLOSE
Current Station
Airport
Location: Rochelle,
Elevation: 781 ft
Nearby Weather Stations

Elev 781 ft 41.89 °N, 89.08 °W | Updated 18 minutes ago

Partly Cloudy
Partly Cloudy
41 °F
Feels Like 34 °F
N
12
Wind Variable Wind from SSW

Today
High -- | Low -- °F
--% Chance of Precip.
Yesterday
High -- | Low -- °F
Precip. -- in
7:21 AM 4:29 PM
Waxing Crescent, 27% visible
Pressure 30.02 in
Visibility 10.0 miles
Clouds Clear
Windchill 34 °F
Dew Point 37 °F
Humidity 86%
Rainfall 0.00 in
Snow Depth Not available.
UV 1 out of 12
Pollen .10 out of 12
Air Quality Not available.
Flu Activity Not available.
METAR KRPJ 261535Z AUTO 21010KT 10SM CLR 05/03 A3002 RMK AO2 T00500029

More Conditions Fewer Conditions

Pressure 30.02 in
Visibility 10.0 miles
Clouds Clear
Windchill 34 °F
Dew Point 37 °F
Humidity 86%
Rainfall 0.00 in
Snow Depth Not available.
UV 1 out of 12
Pollen .10 out of 12
Air Quality Not available.
Flu Activity Not available.
METAR KRPJ 261535Z AUTO 21010KT 10SM CLR 05/03 A3002 RMK AO2 T00500029

More Conditions Fewer Conditions

10-Day Weather Forecast

Almanac

Astronomy

Dec. 26, 2014 Rise Set
Actual Time
Civil Twilight
Nautical Twilight
Astronomical Twilight
Moon
Length of Visible Light
Length of Day
Tomorrow will be .
, % of the Moon is Illuminated

Today's Extremes

State Highs State Lows

Community

WunderPhotos

Upload Photos

1,780,620 photos uploaded!

WunderBlogs® & News

Nearby

Air Quality

  Air Quality AQ Index Pollutant
Not available.

Snow Depth

Station Depth Elevation

Earthquake Activity

City Distance Mag. Time & Date
Minimum magnitude displayed is 2.5.

Coastal Water Temperatures

Place Temperature

Nearby Weather Stations